Time;durP1;ratioP1;P1;durP2;ratioP2;P2;SDS_P1;SDS_P2;PMS_P1;PMS_P2;Temp;Humidity;BMP_temperature;BMP_pressure;BME280_temperature;BME280_humidity;BME280_pressure;Samples;Min_cycle;Max_cycle;Signal;HPM_P1;HPM_P2
2022/11/03 00:01:04;;;;;;;;;;;;;;;12.46;nan;102183.97;5076803;28;19921;-86
2022/11/03 00:03:29;;;;;;;;;;;;;;;12.45;nan;102174.25;5078876;28;19909;-89
2022/11/03 00:06:03;;;;;;;;;;;;;;;12.43;nan;102180.91;5054872;28;19912;-90
2022/11/03 00:08:29;;;;;;;;;;;;;;;12.36;nan;102184.47;5054289;28;19957;-91
2022/11/03 00:11:00;;;;;;;;;;;;;;;12.36;nan;102184.47;5054036;28;19913;-90
2022/11/03 00:13:25;;;;;;;;;;;;;;;12.40;nan;102180.31;5054443;28;20000;-90
2022/11/03 00:15:51;;;;;;;;;;;;;;;12.38;nan;102171.63;5053663;28;20004;-90
2022/11/03 00:18:16;;;;;;;;;;;;;;;12.34;nan;102181.19;5053673;28;19913;-90
2022/11/03 00:20:42;;;;;;;;;;;;;;;12.32;nan;102187.84;5046207;28;19917;-90
2022/11/03 00:23:07;;;;;;;;;;;;;;;12.31;nan;102187.03;5034066;28;19921;-90
2022/11/03 00:25:32;;;;;;;;;;;;;;;12.32;nan;102183.28;5040637;28;20003;-90
2022/11/03 00:27:58;;;;;;;;;;;;;;;12.31;nan;102189.72;5042884;28;19919;-90
2022/11/03 00:30:23;;;;;;;;;;;;;;;12.27;nan;102185.03;5053338;28;19913;-89
2022/11/03 00:32:49;;;;;;;;;;;;;;;12.22;nan;102183.00;5052947;28;19912;-90
2022/11/03 00:35:14;;;;;;;;;;;;;;;12.22;nan;102184.88;5033587;28;19921;-90
2022/11/03 00:37:39;;;;;;;;;;;;;;;12.23;nan;102179.28;5045125;28;19913;-90
2022/11/03 00:40:05;;;;;;;;;;;;;;;12.26;nan;102181.50;5054046;28;19920;-90
2022/11/03 00:42:30;;;;;;;;;;;;;;;12.26;nan;102181.50;5053679;28;19935;-90
2022/11/03 00:44:56;;;;;;;;;;;;;;;12.22;nan;102184.88;5053212;28;19967;-90
2022/11/03 00:47:21;;;;;;;;;;;;;;;12.15;nan;102184.94;5053186;28;19919;-90
2022/11/03 00:49:46;;;;;;;;;;;;;;;12.07;nan;102183.38;5053320;28;20112;-89
2022/11/03 00:52:12;;;;;;;;;;;;;;;12.00;nan;102181.78;5053345;28;19924;-90
2022/11/03 00:54:37;;;;;;;;;;;;;;;11.95;nan;102179.78;5053241;28;20160;-90
2022/11/03 00:57:02;;;;;;;;;;;;;;;11.89;nan;102180.66;5053742;28;20367;-89
2022/11/03 00:59:28;;;;;;;;;;;;;;;11.84;nan;102174.31;5053684;28;19920;-90
2022/11/03 01:01:53;;;;;;;;;;;;;;;11.78;nan;102176.84;5051170;28;19917;-89
2022/11/03 01:07:03;;;;;;;;;;;;;;;11.71;nan;102172.56;5053914;28;19923;-90
2022/11/03 01:09:35;;;;;;;;;;;;;;;11.67;nan;102174.88;5052810;28;19913;-90
2022/11/03 01:12:05;;;;;;;;;;;;;;;11.63;nan;102168.25;5052820;28;19913;-89
2022/11/03 01:14:35;;;;;;;;;;;;;;;11.59;nan;102167.06;5052974;28;19924;-90
2022/11/03 01:17:03;;;;;;;;;;;;;;;11.56;nan;102158.66;5052515;28;19912;-90
2022/11/03 01:19:28;;;;;;;;;;;;;;;11.52;nan;102160.94;5052989;28;20282;-90
2022/11/03 01:21:54;;;;;;;;;;;;;;;11.54;nan;102171.47;5048531;28;19916;-89
2022/11/03 01:24:21;;;;;;;;;;;;;;;11.52;nan;102166.31;5052949;28;19999;-89
2022/11/03 01:26:47;;;;;;;;;;;;;;;11.50;nan;102173.78;5052667;28;20390;-91
2022/11/03 01:29:12;;;;;;;;;;;;;;;11.45;nan;102162.84;5047798;28;19920;-90
2022/11/03 01:31:38;;;;;;;;;;;;;;;11.43;nan;102156.88;5044809;28;20000;-90
2022/11/03 01:34:03;;;;;;;;;;;;;;;11.39;nan;102167.25;5031331;28;20552;-91
2022/11/03 01:36:29;;;;;;;;;;;;;;;11.37;nan;102165.81;5032210;28;20356;-89
2022/11/03 01:38:55;;;;;;;;;;;;;;;11.33;nan;102151.22;5050573;28;19920;-90
2022/11/03 01:41:23;;;;;;;;;;;;;;;11.31;nan;102159.47;5052618;28;19913;-91
2022/11/03 01:43:50;;;;;;;;;;;;;;;11.25;nan;102146.09;5034717;28;20008;-90
2022/11/03 01:46:18;;;;;;;;;;;;;;;11.22;nan;102147.34;5032722;28;19936;-90
2022/11/03 01:48:50;;;;;;;;;;;;;;;11.21;nan;102145.72;5032368;28;19917;-90
2022/11/03 01:51:18;;;;;;;;;;;;;;;11.20;nan;102144.88;5046233;28;19916;-89
2022/11/03 01:53:46;;;;;;;;;;;;;;;11.16;nan;102143.69;5052186;28;19959;-90
2022/11/03 01:56:15;;;;;;;;;;;;;;;11.13;nan;102143.28;5052303;28;19927;-90
2022/11/03 01:58:41;;;;;;;;;;;;;;;11.10;nan;102143.72;5052151;28;19917;-90
2022/11/03 02:01:10;;;;;;;;;;;;;;;11.09;nan;102142.06;5052504;28;19947;-90
2022/11/03 02:03:39;;;;;;;;;;;;;;;11.07;nan;102138.78;5052513;28;19914;-90
2022/11/03 02:06:05;;;;;;;;;;;;;;;11.07;nan;102142.31;5052466;28;19913;-89
2022/11/03 02:08:35;;;;;;;;;;;;;;;11.07;nan;102136.13;5051915;28;19978;-90
2022/11/03 02:12:05;;;;;;;;;;;;;;;11.05;nan;102136.34;5052553;28;19913;-89
2022/11/03 02:13:45;;;;;;;;;;;;;;;11.07;nan;102130.75;5043023;28;20394;-89
2022/11/03 02:16:11;;;;;;;;;;;;;;;11.05;nan;102130.97;5048741;28;20015;-90
2022/11/03 02:18:37;;;;;;;;;;;;;;;11.06;nan;102131.78;5052069;28;19951;-90
2022/11/03 02:21:03;;;;;;;;;;;;;;;11.08;nan;102124.34;5051949;28;19948;-90
2022/11/03 02:23:28;;;;;;;;;;;;;;;11.08;nan;102114.44;5052369;28;19932;-91
2022/11/03 02:25:58;;;;;;;;;;;;;;;11.08;nan;102116.28;5055096;28;20569;-89
2022/11/03 02:28:28;;;;;;;;;;;;;;;11.08;nan;102113.63;5056057;28;19912;-90
2022/11/03 02:31:09;;;;;;;;;;;;;;;11.09;nan;102107.22;5056638;28;19919;-90
2022/11/03 02:33:53;;;;;;;;;;;;;;;11.06;nan;102111.16;5056047;28;19916;-90
2022/11/03 02:36:25;;;;;;;;;;;;;;;11.02;nan;102104.59;5056194;28;20282;-91
2022/11/03 02:38:57;;;;;;;;;;;;;;;10.98;nan;102106.06;5055779;28;19913;-89
2022/11/03 02:41:25;;;;;;;;;;;;;;;10.96;nan;102102.78;5055930;28;19919;-89
2022/11/03 02:43:51;;;;;;;;;;;;;;;10.92;nan;102106.91;5055936;28;19912;-90
2022/11/03 02:46:17;;;;;;;;;;;;;;;10.93;nan;102105.88;5055899;28;19935;-90
2022/11/03 02:48:42;;;;;;;;;;;;;;;10.95;nan;102103.84;5056011;28;20496;-90
2022/11/03 02:51:10;;;;;;;;;;;;;;;10.99;nan;102098.84;5054246;28;20374;-90
2022/11/03 02:53:42;;;;;;;;;;;;;;;11.05;nan;102096.09;5055988;28;20008;-90
2022/11/03 02:56:19;;;;;;;;;;;;;;;11.09;nan;102099.97;5055430;28;20363;-90
2022/11/03 02:58:59;;;;;;;;;;;;;;;11.11;nan;102097.09;5055917;28;19916;-90
2022/11/03 03:01:25;;;;;;;;;;;;;;;11.14;nan;102092.13;5055867;28;19952;-89
2022/11/03 03:03:53;;;;;;;;;;;;;;;11.17;nan;102093.53;5055348;28;20372;-90
2022/11/03 03:06:22;;;;;;;;;;;;;;;11.19;nan;102088.78;5055451;28;19943;-90
2022/11/03 03:08:50;;;;;;;;;;;;;;;11.20;nan;102095.78;5055605;28;20264;-89
2022/11/03 03:11:16;;;;;;;;;;;;;;;11.23;nan;102089.16;5047129;28;19917;-89
2022/11/03 03:13:42;;;;;;;;;;;;;;;11.25;nan;102077.16;5035322;28;19920;-90
2022/11/03 03:16:13;;;;;;;;;;;;;;;11.29;nan;102077.53;5035688;28;19947;-90
2022/11/03 03:18:50;;;;;;;;;;;;;;;11.31;nan;102076.31;5035297;28;19913;-91
2022/11/03 03:21:25;;;;;;;;;;;;;;;11.30;nan;102073.81;5034979;28;19955;-90
2022/11/03 03:23:53;;;;;;;;;;;;;;;11.30;nan;102069.25;5035190;28;19913;-90
2022/11/03 03:26:23;;;;;;;;;;;;;;;11.32;nan;102067.22;5034790;28;19913;-90
2022/11/03 03:28:50;;;;;;;;;;;;;;;11.37;nan;102061.16;5034862;28;20401;-91
2022/11/03 03:31:18;;;;;;;;;;;;;;;11.38;nan;102052.06;5034745;28;19920;-90
2022/11/03 03:33:44;;;;;;;;;;;;;;;11.39;nan;102051.03;5034623;28;19920;-91
2022/11/03 03:36:12;;;;;;;;;;;;;;;11.39;nan;102043.81;5033694;28;20397;-91
2022/11/03 03:38:43;;;;;;;;;;;;;;;11.40;nan;102045.44;5034283;28;20406;-90
2022/11/03 03:41:11;;;;;;;;;;;;;;;11.41;nan;102043.56;5034446;28;19949;-91
2022/11/03 03:43:37;;;;;;;;;;;;;;;11.38;nan;102050.22;5034802;28;19919;-90
2022/11/03 03:46:07;;;;;;;;;;;;;;;11.37;nan;102048.56;5034753;28;19996;-90
2022/11/03 03:48:32;;;;;;;;;;;;;;;11.38;nan;102042.16;5034690;28;20445;-90
2022/11/03 03:51:00;;;;;;;;;;;;;;;11.39;nan;102051.03;5034150;28;19917;-90
2022/11/03 03:53:27;;;;;;;;;;;;;;;11.41;nan;102046.25;5033619;28;19921;-91
2022/11/03 03:55:52;;;;;;;;;;;;;;;11.44;nan;102051.19;5034033;28;19921;-91
2022/11/03 03:58:17;;;;;;;;;;;;;;;11.43;nan;102058.41;5034649;28;19967;-90
2022/11/03 04:00:43;;;;;;;;;;;;;;;11.43;nan;102050.34;5035039;28;19917;-91
2022/11/03 04:03:16;;;;;;;;;;;;;;;11.44;nan;102054.69;5034569;28;19963;-90
2022/11/03 04:05:42;;;;;;;;;;;;;;;11.45;nan;102048.28;5033308;28;19967;-91
2022/11/03 04:08:07;;;;;;;;;;;;;;;11.44;nan;102049.31;5034127;28;20314;-89
2022/11/03 04:10:32;;;;;;;;;;;;;;;11.39;nan;102053.72;5034475;28;19964;-89
2022/11/03 04:23:44;;;;;;;;;;;;;;;11.38;nan;102049.38;5034566;28;19963;-90
2022/11/03 04:26:14;;;;;;;;;;;;;;;11.44;nan;102043.13;5034202;28;19913;-90
2022/11/03 04:28:42;;;;;;;;;;;;;;;11.47;nan;102053.41;5034011;28;19913;-90
2022/11/03 04:31:11;;;;;;;;;;;;;;;11.50;nan;102044.94;5033845;28;19917;-90
2022/11/03 04:33:37;;;;;;;;;;;;;;;11.53;nan;102041.00;5033812;28;19913;-90
2022/11/03 04:36:09;;;;;;;;;;;;;;;11.53;nan;102049.88;5033904;28;19924;-90
2022/11/03 04:38:35;;;;;;;;;;;;;;;11.52;nan;102037.47;5033740;28;19920;-90
2022/11/03 04:41:02;;;;;;;;;;;;;;;11.52;nan;102033.97;5033826;28;20287;-89
2022/11/03 04:43:34;;;;;;;;;;;;;;;11.51;nan;102038.53;5034113;28;20117;-90
2022/11/03 04:46:00;;;;;;;;;;;;;;;11.51;nan;102030.47;5033525;28;19962;-90
2022/11/03 04:48:27;;;;;;;;;;;;;;;11.51;nan;102033.16;5033307;28;19920;-90
2022/11/03 04:50:54;;;;;;;;;;;;;;;11.54;nan;102021.16;5034123;28;19913;-90
2022/11/03 04:53:20;;;;;;;;;;;;;;;11.56;nan;102030.63;5033454;28;20392;-91
2022/11/03 04:55:48;;;;;;;;;;;;;;;11.57;nan;102023.38;5033414;28;19921;-91
2022/11/03 04:58:20;;;;;;;;;;;;;;;11.57;nan;102024.22;5033396;28;19920;-89
2022/11/03 05:00:48;;;;;;;;;;;;;;;11.58;nan;102025.03;5033099;28;20008;-90
2022/11/03 05:03:16;;;;;;;;;;;;;;;11.58;nan;102020.47;5032931;28;19914;-90
2022/11/03 05:05:41;;;;;;;;;;;;;;;11.59;nan;102023.97;5033618;28;19941;-89
2022/11/03 05:08:07;;;;;;;;;;;;;;;11.57;nan;102018.84;5031837;28;20596;-90
2022/11/03 05:10:33;;;;;;;;;;;;;;;11.56;nan;102025.25;5033404;28;19923;-90
2022/11/03 05:12:59;;;;;;;;;;;;;;;11.56;nan;102016.38;5033135;28;20012;-90
2022/11/03 05:15:33;;;;;;;;;;;;;;;11.56;nan;102013.69;5033427;28;19961;-90
2022/11/03 05:17:59;;;;;;;;;;;;;;;11.53;nan;102008.78;5033143;28;19921;-90
2022/11/03 05:20:35;;;;;;;;;;;;;;;11.54;nan;102005.06;5033457;28;19920;-90
2022/11/03 05:23:03;;;;;;;;;;;;;;;11.54;nan;102003.19;5033710;28;19999;-90
2022/11/03 05:25:42;;;;;;;;;;;;;;;11.56;nan;101997.59;5032604;28;20185;-90
2022/11/03 05:28:13;;;;;;;;;;;;;;;11.57;nan;102000.06;5039465;28;19913;-89
2022/11/03 05:30:39;;;;;;;;;;;;;;;11.57;nan;101994.69;5036446;28;19959;-88
2022/11/03 05:33:13;;;;;;;;;;;;;;;11.55;nan;101994.09;5031110;28;19913;-90
2022/11/03 05:35:39;;;;;;;;;;;;;;;11.55;nan;101998.63;5031116;28;19917;-90
2022/11/03 05:38:10;;;;;;;;;;;;;;;11.53;nan;101990.00;5030771;28;20330;-89
2022/11/03 05:40:35;;;;;;;;;;;;;;;11.50;nan;101985.91;5030907;28;19945;-90
2022/11/03 05:43:01;;;;;;;;;;;;;;;11.48;nan;101977.22;5030603;28;19935;-90
2022/11/03 05:45:31;;;;;;;;;;;;;;;11.48;nan;101977.22;5030796;28;19913;-89
2022/11/03 05:47:57;;;;;;;;;;;;;;;11.50;nan;101973.28;5030749;28;20394;-90
2022/11/03 05:50:34;;;;;;;;;;;;;;;11.48;nan;101990.63;5030732;28;19913;-89
2022/11/03 05:53:09;;;;;;;;;;;;;;;11.44;nan;101982.22;5030679;28;19944;-89
2022/11/03 05:55:36;;;;;;;;;;;;;;;11.43;nan;101977.09;5028724;28;19928;-90
2022/11/03 05:58:13;;;;;;;;;;;;;;;11.45;nan;101975.81;5030543;28;19917;-89
2022/11/03 06:00:40;;;;;;;;;;;;;;;11.49;nan;101973.53;5029650;28;19913;-90
2022/11/03 06:03:06;;;;;;;;;;;;;;;11.49;nan;101973.53;5030234;28;20004;-89
2022/11/03 06:05:33;;;;;;;;;;;;;;;11.50;nan;101972.47;5030440;28;20051;-89
2022/11/03 06:08:18;;;;;;;;;;;;;;;11.52;nan;101967.69;5030441;28;19917;-89
2022/11/03 06:10:45;;;;;;;;;;;;;;;11.53;nan;101972.03;5030185;28;19917;-89
2022/11/03 06:13:13;;;;;;;;;;;;;;;11.53;nan;101969.34;5045958;28;19917;-89
2022/11/03 06:15:41;;;;;;;;;;;;;;;11.54;nan;101962.94;5050555;28;20002;-90
2022/11/03 06:18:15;;;;;;;;;;;;;;;11.56;nan;101970.75;5066237;28;19962;-89
2022/11/03 06:20:43;;;;;;;;;;;;;;;11.57;nan;101970.53;5057785;28;19944;-90
2022/11/03 06:23:13;;;;;;;;;;;;;;;11.61;nan;101971.72;5050599;28;19955;-90
2022/11/03 06:25:42;;;;;;;;;;;;;;;11.66;nan;101968.34;5051031;28;19913;-91
2022/11/03 06:28:10;;;;;;;;;;;;;;;11.71;nan;101960.44;5051459;28;19917;-90
2022/11/03 06:30:38;;;;;;;;;;;;;;;11.75;nan;101973.19;5052715;28;20268;-90
2022/11/03 06:33:17;;;;;;;;;;;;;;;11.75;nan;101967.00;5050417;28;19920;-91
2022/11/03 06:35:43;;;;;;;;;;;;;;;11.75;nan;101970.50;5050082;28;19971;-90
2022/11/03 06:38:16;;;;;;;;;;;;;;;11.77;nan;101973.78;5050283;28;19944;-90
2022/11/03 06:40:42;;;;;;;;;;;;;;;11.81;nan;101982.22;5042225;28;19921;-90
2022/11/03 06:43:30;;;;;;;;;;;;;;;11.85;nan;101979.91;5030151;28;20450;-90
2022/11/03 06:46:00;;;;;;;;;;;;;;;11.86;nan;101973.53;5049558;28;19913;-89
2022/11/03 06:48:29;;;;;;;;;;;;;;;11.84;nan;101972.91;5049605;28;19912;-89
2022/11/03 06:50:57;;;;;;;;;;;;;;;11.88;nan;101987.53;5060829;28;20341;-89
2022/11/03 06:53:24;;;;;;;;;;;;;;;11.89;nan;101981.13;5049879;28;20283;-89
2022/11/03 06:55:49;;;;;;;;;;;;;;;11.92;nan;101980.66;5048842;28;19921;-89
2022/11/03 06:58:29;;;;;;;;;;;;;;;11.92;nan;101981.47;5049291;28;19913;-89
2022/11/03 07:01:00;;;;;;;;;;;;;;;11.93;nan;101983.13;5049782;28;20003;-90
2022/11/03 07:03:29;;;;;;;;;;;;;;;11.96;nan;101984.53;5049747;28;20409;-90
2022/11/03 07:06:00;;;;;;;;;;;;;;;11.99;nan;101984.06;5049749;28;20297;-90
2022/11/03 07:08:31;;;;;;;;;;;;;;;12.00;nan;101985.69;5041522;28;19923;-90
2022/11/03 07:11:19;;;;;;;;;;;;;;;12.04;nan;101976.16;5047181;28;19917;-90
2022/11/03 07:13:45;;;;;;;;;;;;;;;12.13;nan;101977.47;5037117;28;19924;-90
2022/11/03 07:16:12;;;;;;;;;;;;;;;12.20;nan;101980.88;5048786;28;19924;-90
2022/11/03 07:18:41;;;;;;;;;;;;;;;12.28;nan;101977.88;5046069;28;19924;-90
2022/11/03 07:21:27;;;;;;;;;;;;;;;12.31;nan;101972.03;5048924;28;20160;-90
2022/11/03 07:23:52;;;;;;;;;;;;;;;12.35;nan;101970.53;5042582;28;19917;-91
2022/11/03 07:26:17;;;;;;;;;;;;;;;12.41;nan;101968.81;5045988;28;20202;-90
2022/11/03 07:28:43;;;;;;;;;;;;;;;12.51;nan;101962.84;5050252;28;20293;-90
2022/11/03 07:31:14;;;;;;;;;;;;;;;12.62;nan;101956.69;5046657;28;19928;-90
2022/11/03 07:33:40;;;;;;;;;;;;;;;12.66;nan;101949.78;5051605;28;19928;-90
2022/11/03 07:36:05;;;;;;;;;;;;;;;12.69;nan;101943.94;5054196;28;19920;-90
2022/11/03 07:38:31;;;;;;;;;;;;;;;12.77;nan;101946.28;5048356;28;20174;-90
2022/11/03 07:40:58;;;;;;;;;;;;;;;12.82;nan;101946.41;5050110;28;19920;-90
2022/11/03 07:43:31;;;;;;;;;;;;;;;12.91;nan;101946.84;5045766;28;20190;-89
2022/11/03 07:45:59;;;;;;;;;;;;;;;12.97;nan;101951.31;5047335;28;19966;-90
2022/11/03 07:48:40;;;;;;;;;;;;;;;12.99;nan;101944.66;5047104;28;19917;-90
2022/11/03 07:51:14;;;;;;;;;;;;;;;13.03;nan;101953.06;5046351;28;19916;-90
2022/11/03 07:53:44;;;;;;;;;;;;;;;13.08;nan;101941.59;5049416;28;20012;-90
2022/11/03 07:56:23;;;;;;;;;;;;;;;13.13;nan;101947.09;5046514;28;20014;-90
2022/11/03 07:58:51;;;;;;;;;;;;;;;13.17;nan;101945.56;5045804;28;20397;-90
2022/11/03 08:01:22;;;;;;;;;;;;;;;13.18;nan;101942.66;5045154;28;19920;-89
2022/11/03 08:03:48;;;;;;;;;;;;;;;13.24;nan;101938.19;5046010;28;19986;-90
2022/11/03 08:06:13;;;;;;;;;;;;;;;13.30;nan;101939.97;5048459;28;19913;-89
2022/11/03 08:08:39;;;;;;;;;;;;;;;13.35;nan;101934.69;5048872;28;20405;-90
2022/11/03 08:11:05;;;;;;;;;;;;;;;13.44;nan;101929.72;5047723;28;19920;-90
2022/11/03 08:13:30;;;;;;;;;;;;;;;13.57;nan;101930.28;5046575;28;20014;-91
2022/11/03 08:15:56;;;;;;;;;;;;;;;13.71;nan;101924.63;5047194;28;19921;-90
2022/11/03 08:18:21;;;;;;;;;;;;;;;13.84;nan;101924.34;5045432;28;19917;-90
2022/11/03 08:20:46;;;;;;;;;;;;;;;13.95;nan;101919.94;5044053;28;19963;-90
2022/11/03 08:23:12;;;;;;;;;;;;;;;14.03;nan;101920.38;5046840;28;19920;-90
2022/11/03 08:25:37;;;;;;;;;;;;;;;14.10;nan;101918.34;5046862;28;19925;-89
2022/11/03 08:28:03;;;;;;;;;;;;;;;14.17;nan;101905.53;5044688;28;19928;-91
2022/11/03 08:30:28;;;;;;;;;;;;;;;14.26;nan;101899.75;5048921;28;20268;-91
2022/11/03 08:32:54;;;;;;;;;;;;;;;14.39;nan;101888.66;5044698;28;19916;-90
2022/11/03 08:35:19;;;;;;;;;;;;;;;14.54;nan;101891.59;5043116;28;19921;-90
2022/11/03 08:37:44;;;;;;;;;;;;;;;14.69;nan;101883.72;5043713;28;19917;-90
2022/11/03 08:40:10;;;;;;;;;;;;;;;14.80;nan;101890.91;5045947;28;19920;-89
2022/11/03 08:42:35;;;;;;;;;;;;;;;14.97;nan;101884.66;5045993;28;20371;-90
2022/11/03 08:45:01;;;;;;;;;;;;;;;15.10;nan;101878.91;5043034;28;20296;-90
2022/11/03 08:47:26;;;;;;;;;;;;;;;15.26;nan;101878.03;5051793;28;19982;-91
2022/11/03 08:49:51;;;;;;;;;;;;;;;15.40;nan;101884.66;5045992;28;19940;-91
2022/11/03 08:52:17;;;;;;;;;;;;;;;15.52;nan;101881.81;5046287;28;19995;-91
2022/11/03 08:54:42;;;;;;;;;;;;;;;15.64;nan;101882.53;5045519;28;19961;-91
2022/11/03 08:57:07;;;;;;;;;;;;;;;15.76;nan;101868.84;5044081;28;19935;-91
2022/11/03 08:59:33;;;;;;;;;;;;;;;15.91;nan;101865.50;5044358;28;19986;-90
2022/11/03 09:01:58;;;;;;;;;;;;;;;16.01;nan;101865.59;5042886;28;19924;-91
2022/11/03 09:04:23;;;;;;;;;;;;;;;16.09;nan;101865.09;5049376;28;19963;-91
2022/11/03 09:06:49;;;;;;;;;;;;;;;16.19;nan;101869.81;5048484;28;19916;-91
2022/11/03 09:09:15;;;;;;;;;;;;;;;16.32;nan;101858.53;5045530;28;19921;-90
2022/11/03 09:11:40;;;;;;;;;;;;;;;16.46;nan;101859.72;5039019;28;20032;-89
2022/11/03 09:14:06;;;;;;;;;;;;;;;16.53;nan;101854.91;5043051;28;19920;-89
2022/11/03 09:16:31;;;;;;;;;;;;;;;16.62;nan;101852.50;5047210;28;20527;-90
2022/11/03 09:18:56;;;;;;;;;;;;;;;16.72;nan;101846.41;5047265;28;19986;-89
2022/11/03 09:21:22;;;;;;;;;;;;;;;16.82;nan;101839.13;5048317;28;20008;-90
2022/11/03 09:23:47;;;;;;;;;;;;;;;16.91;nan;101834.84;5047884;28;19924;-90
2022/11/03 09:26:12;;;;;;;;;;;;;;;17.01;nan;101839.47;5047535;28;20349;-89
2022/11/03 09:28:38;;;;;;;;;;;;;;;17.14;nan;101830.88;5042714;28;19921;-90
2022/11/03 09:31:03;;;;;;;;;;;;;;;17.31;nan;101829.84;5045005;28;19917;-90
2022/11/03 09:33:29;;;;;;;;;;;;;;;17.36;nan;101829.84;5048905;28;20317;-91
2022/11/03 09:35:54;;;;;;;;;;;;;;;17.48;nan;101830.44;5046193;28;19936;-89
2022/11/03 09:38:19;;;;;;;;;;;;;;;17.62;nan;101817.19;5044640;28;19944;-90
2022/11/03 09:40:45;;;;;;;;;;;;;;;17.70;nan;101816.66;5045381;28;19916;-90
2022/11/03 09:43:10;;;;;;;;;;;;;;;17.79;nan;101812.34;5048011;28;19917;-90
2022/11/03 09:45:37;;;;;;;;;;;;;;;17.90;nan;101816.69;5044118;28;20035;-89
2022/11/03 09:48:02;;;;;;;;;;;;;;;17.98;nan;101812.63;5052639;28;19921;-90
2022/11/03 09:50:27;;;;;;;;;;;;;;;18.06;nan;101801.22;5047314;28;19936;-90
2022/11/03 09:52:54;;;;;;;;;;;;;;;18.10;nan;101792.25;5046176;28;20043;-89
2022/11/03 09:55:26;;;;;;;;;;;;;;;18.15;nan;101787.94;5048753;28;19951;-91
2022/11/03 09:57:57;;;;;;;;;;;;;;;18.25;nan;101786.00;5047151;28;20410;-90
2022/11/03 10:00:25;;;;;;;;;;;;;;;18.24;nan;101787.09;5045767;28;20405;-90
2022/11/03 10:02:50;;;;;;;;;;;;;;;18.35;nan;101783.28;5047568;28;19923;-90
2022/11/03 10:05:22;;;;;;;;;;;;;;;18.42;nan;101782.97;5048319;28;19916;-90
2022/11/03 10:07:47;;;;;;;;;;;;;;;18.47;nan;101784.88;5048658;28;19917;-90
2022/11/03 10:10:17;;;;;;;;;;;;;;;18.56;nan;101775.09;5040920;28;19916;-91
2022/11/03 10:12:43;;;;;;;;;;;;;;;18.64;nan;101777.25;5040442;28;19924;-89
2022/11/03 10:15:13;;;;;;;;;;;;;;;18.73;nan;101774.78;5049680;28;19929;-90
2022/11/03 10:17:38;;;;;;;;;;;;;;;18.79;nan;101774.47;5047581;28;19917;-91
2022/11/03 10:20:05;;;;;;;;;;;;;;;18.82;nan;101770.38;5040769;28;19927;-90
2022/11/03 10:22:30;;;;;;;;;;;;;;;18.90;nan;101762.50;5046288;28;19921;-90
2022/11/03 10:25:14;;;;;;;;;;;;;;;18.97;nan;101762.16;5050198;28;20054;-90
2022/11/03 10:27:39;;;;;;;;;;;;;;;18.96;nan;101750.50;5052347;28;19923;-90
2022/11/03 10:30:06;;;;;;;;;;;;;;;19.02;nan;101748.56;5047288;28;20323;-91
2022/11/03 10:32:33;;;;;;;;;;;;;;;19.01;nan;101739.59;5051696;28;19925;-90
2022/11/03 10:34:59;;;;;;;;;;;;;;;19.02;nan;101732.25;5045559;28;19924;-90
2022/11/03 10:37:25;;;;;;;;;;;;;;;19.12;nan;101725.97;5048776;28;20398;-89
2022/11/03 10:39:52;;;;;;;;;;;;;;;19.25;nan;101733.50;5047615;28;19916;-90
2022/11/03 10:42:21;;;;;;;;;;;;;;;19.41;nan;101720.63;5046263;28;19923;-90
2022/11/03 10:44:48;;;;;;;;;;;;;;;19.51;nan;101718.59;5042786;28;20443;-91
2022/11/03 10:47:22;;;;;;;;;;;;;;;19.52;nan;101714.00;5047032;28;20291;-90
2022/11/03 10:49:47;;;;;;;;;;;;;;;19.57;nan;101717.53;5056991;28;19917;-90
2022/11/03 10:52:21;;;;;;;;;;;;;;;19.52;nan;101697.69;5059433;28;20422;-90
2022/11/03 10:54:47;;;;;;;;;;;;;;;19.58;nan;101691.97;5048151;28;19960;-91
2022/11/03 10:57:13;;;;;;;;;;;;;;;19.60;nan;101694.41;5057190;28;19959;-89
2022/11/03 10:59:39;;;;;;;;;;;;;;;19.72;nan;101696.72;5055043;28;20414;-90
2022/11/03 11:02:14;;;;;;;;;;;;;;;19.82;nan;101691.19;5053070;28;19999;-90
2022/11/03 11:04:40;;;;;;;;;;;;;;;19.87;nan;101683.78;5050741;28;19916;-90
2022/11/03 11:07:26;;;;;;;;;;;;;;;19.98;nan;101689.13;5049933;28;20175;-90
2022/11/03 11:09:52;;;;;;;;;;;;;;;19.99;nan;101680.69;5056263;28;19924;-91
2022/11/03 11:12:22;;;;;;;;;;;;;;;19.96;nan;101675.81;5073433;28;20098;-90
2022/11/03 11:14:51;;;;;;;;;;;;;;;19.88;nan;101663.66;5057157;28;19970;-90
2022/11/03 11:17:36;;;;;;;;;;;;;;;19.90;nan;101668.78;5055109;28;20118;-90
2022/11/03 11:20:23;;;;;;;;;;;;;;;19.88;nan;101668.28;5049342;28;20382;-89
2022/11/03 11:22:49;;;;;;;;;;;;;;;19.92;nan;101664.69;5039991;28;19921;-90
2022/11/03 11:25:16;;;;;;;;;;;;;;;19.90;nan;101660.63;5056596;28;20083;-91
2022/11/03 11:27:45;;;;;;;;;;;;;;;19.91;nan;101656.81;5052875;28;20394;-91
2022/11/03 11:30:31;;;;;;;;;;;;;;;19.80;nan;101647.97;5054302;28;20013;-91
2022/11/03 11:33:11;;;;;;;;;;;;;;;19.77;nan;101640.41;5037698;28;19927;-90
2022/11/03 11:35:36;;;;;;;;;;;;;;;19.77;nan;101645.03;5053056;28;19943;-89
2022/11/03 11:38:20;;;;;;;;;;;;;;;19.81;nan;101646.88;5050074;28;19917;-91
2022/11/03 11:40:49;;;;;;;;;;;;;;;19.78;nan;101641.22;5049967;28;20008;-89
2022/11/03 11:43:17;;;;;;;;;;;;;;;19.76;nan;101636.06;5049460;28;19917;-89
2022/11/03 11:46:01;;;;;;;;;;;;;;;19.73;nan;101624.91;5050709;28;20370;-90
2022/11/03 11:48:26;;;;;;;;;;;;;;;19.61;nan;101625.34;5054171;28;19917;-90
2022/11/03 11:50:55;;;;;;;;;;;;;;;19.60;nan;101616.38;5054749;28;20389;-91
2022/11/03 11:53:21;;;;;;;;;;;;;;;19.57;nan;101606.06;5045453;28;19921;-89
2022/11/03 11:55:53;;;;;;;;;;;;;;;19.55;nan;101605.53;5046423;28;20331;-91
2022/11/03 11:58:28;;;;;;;;;;;;;;;19.61;nan;101603.59;5045169;28;19964;-90
2022/11/03 12:00:55;;;;;;;;;;;;;;;19.66;nan;101594.56;5050652;28;19920;-91
2022/11/03 12:03:24;;;;;;;;;;;;;;;19.70;nan;101585.53;5051242;28;20424;-90
2022/11/03 12:05:49;;;;;;;;;;;;;;;19.79;nan;101583.81;5047147;28;20201;-90
2022/11/03 12:08:27;;;;;;;;;;;;;;;19.86;nan;101583.44;5047505;28;19920;-91
2022/11/03 12:10:54;;;;;;;;;;;;;;;19.88;nan;101575.81;5044103;28;19960;-91
2022/11/03 12:13:38;;;;;;;;;;;;;;;19.84;nan;101574.78;5044000;28;20733;-91
2022/11/03 12:16:03;;;;;;;;;;;;;;;19.80;nan;101563.69;5048344;28;19929;-90
2022/11/03 12:18:32;;;;;;;;;;;;;;;19.84;nan;101561.19;5043524;28;20437;-90
2022/11/03 12:20:58;;;;;;;;;;;;;;;19.84;nan;101555.75;5042024;28;19928;-90
2022/11/03 12:23:33;;;;;;;;;;;;;;;19.86;nan;101559.78;5044141;28;19921;-90
2022/11/03 12:25:58;;;;;;;;;;;;;;;19.82;nan;101552.50;5044719;28;19947;-90
2022/11/03 12:28:31;;;;;;;;;;;;;;;19.82;nan;101544.34;5038808;28;20375;-90
2022/11/03 12:30:56;;;;;;;;;;;;;;;19.87;nan;101547.00;5043043;28;19928;-90
2022/11/03 12:33:21;;;;;;;;;;;;;;;19.97;nan;101546.88;5046123;28;19920;-90
2022/11/03 12:35:47;;;;;;;;;;;;;;;20.04;nan;101536.44;5043314;28;19921;-90
2022/11/03 12:38:12;;;;;;;;;;;;;;;20.07;nan;101541.28;5039846;28;19920;-90
2022/11/03 12:40:37;;;;;;;;;;;;;;;20.12;nan;101538.53;5039905;28;19990;-91
2022/11/03 12:43:03;;;;;;;;;;;;;;;20.19;nan;101541.69;5039549;28;20007;-90
2022/11/03 12:45:28;;;;;;;;;;;;;;;20.25;nan;101544.31;5041727;28;19921;-89
2022/11/03 12:47:53;;;;;;;;;;;;;;;20.29;nan;101542.63;5045045;28;19924;-91
2022/11/03 12:50:19;;;;;;;;;;;;;;;20.26;nan;101535.06;5042967;28;20452;-91
2022/11/03 12:52:44;;;;;;;;;;;;;;;20.26;nan;101532.34;5045695;28;19923;-91
2022/11/03 12:55:10;;;;;;;;;;;;;;;20.29;nan;101532.59;5042967;28;20070;-90
2022/11/03 12:57:35;;;;;;;;;;;;;;;20.31;nan;101529.56;5040803;28;20016;-91
2022/11/03 13:00:01;;;;;;;;;;;;;;;20.33;nan;101527.34;5043391;28;19978;-90
2022/11/03 13:02:26;;;;;;;;;;;;;;;20.34;nan;101520.81;5040384;28;20384;-91
2022/11/03 13:04:51;;;;;;;;;;;;;;;20.35;nan;101520.50;5039346;28;19924;-90
2022/11/03 13:07:17;;;;;;;;;;;;;;;20.39;nan;101515.28;5061437;22;19932;-32
2022/11/03 13:09:42;;;;;;;;;;;;;;;20.37;nan;101518.28;5043034;28;19925;-32
2022/11/03 13:14:54;;;;;;;;;;;;;;;20.34;nan;101513.44;5031661;28;19943;-32
2022/11/03 13:17:19;;;;;;;;;;;;;;;20.34;nan;101510.72;5032376;28;19921;-33
2022/11/03 13:19:45;;;;;;;;;;;;;;;20.34;nan;101508.00;5053244;23;20295;-35